CheckWX is a tool to help pilots better visualize weather data.  It is not intended as a substitute for an official pre-flight weather briefing.

08:06:19 UTC

KHST TAF
Homestead ARB Airport
Homestead, Florida, USA
TAF KHST 210000Z 2100/2206 21006KT 9999 FEW030 SCT180 QNH2993INS BECMG 2113/2114 18009KT 9999 SCT030 SCT200 QNH2990INS BECMG 2122/2123 15006KT 9999 SCT100 SCT200 QNH2999INS TX32/2121Z TN24/2111Z

Oct-21@
00:00 UTC

Oct-21 @ 00:00 UTC

Oct-21@
13:00 UTC

Oct-21 @ 13:00 UTC

TAF KHST 210000Z 2100/2206 21006KT 9999 FEW030 SCT180 QNH2993INS
Wind
  • 210° at 6 KTS
Cloud Levels
  • Few at 3,000' AGL
  • Scattered at 18,000' AGL

Oct-21@
13:00 UTC

Oct-21 @ 13:00 UTC

Oct-21@
22:00 UTC

Oct-21 @ 22:00 UTC

BECMG 2113/2114 18009KT 9999 SCT030 SCT200 QNH2990INS

Becoming

Becoming Conditions expected by Mon, Oct 21, 2019 @ 14:00 UTC

Wind
  • 180° at 9 KTS
Cloud Levels
  • Scattered at 3,000' AGL
  • Scattered at 20,000' AGL

Oct-21@
22:00 UTC

Oct-21 @ 22:00 UTC

Oct-22@
06:00 UTC

Oct-22 @ 06:00 UTC

BECMG 2122/2123 15006KT 9999 SCT100 SCT200 QNH2999INS TX32/2121Z TN24/2111Z

Becoming

Becoming Conditions expected by Mon, Oct 21, 2019 @ 23:00 UTC

Wind
  • 150° at 6 KTS
Cloud Levels
  • Scattered at 10,000' AGL
  • Scattered at 20,000' AGL